createdAt,value
2024-02-13T00:01:42.787Z,101486.00
2024-02-13T00:04:11.329Z,101482.97
2024-02-13T00:06:38.424Z,101487.13
2024-02-13T00:09:05.575Z,101492.94
2024-02-13T00:11:32.195Z,101491.09
2024-02-13T00:13:58.653Z,101488.13
2024-02-13T00:16:25.580Z,101488.31
2024-02-13T00:18:52.235Z,101485.81
2024-02-13T00:21:18.824Z,101488.88
2024-02-13T00:23:45.562Z,101494.56
2024-02-13T00:26:12.146Z,101494.94
2024-02-13T00:28:39.186Z,101500.66
2024-02-13T00:31:06.099Z,101504.16
2024-02-13T00:33:32.966Z,101496.13
2024-02-13T00:35:59.473Z,101498.81
2024-02-13T00:38:26.735Z,101496.28
2024-02-13T00:40:53.194Z,101494.25
2024-02-13T00:43:21.148Z,101505.31
2024-02-13T00:45:48.105Z,101512.00
2024-02-13T00:48:14.764Z,101508.66
2024-02-13T00:50:41.480Z,101505.31
2024-02-13T00:53:07.998Z,101504.97
2024-02-13T00:55:34.410Z,101508.47
2024-02-13T00:58:01.314Z,101508.31
2024-02-13T01:00:28.162Z,101515.50
2024-02-13T01:02:56.732Z,101524.06
2024-02-13T01:05:23.445Z,101515.09
2024-02-13T01:07:49.898Z,101522.47
2024-02-13T01:10:17.072Z,101523.66
2024-02-13T01:12:43.491Z,101523.31
2024-02-13T01:15:10.221Z,101525.97
2024-02-13T01:17:36.789Z,101526.16
2024-02-13T01:20:05.105Z,101523.47
2024-02-13T01:22:31.656Z,101530.50
2024-02-13T01:24:58.243Z,101527.13
2024-02-13T01:27:26.193Z,101531.50
2024-02-13T01:29:52.944Z,101530.66
2024-02-13T01:32:19.570Z,101526.50
2024-02-13T01:34:46.109Z,101535.56
2024-02-13T01:37:12.780Z,101536.34
2024-02-13T01:39:39.849Z,101546.59
2024-02-13T01:42:06.262Z,101547.75
2024-02-13T01:44:33.965Z,101546.63
2024-02-13T01:47:00.562Z,101545.81
2024-02-13T01:49:29.495Z,101542.00
2024-02-13T01:51:57.780Z,101546.69
2024-02-13T01:54:27.115Z,101545.38
2024-02-13T01:56:54.478Z,101549.72
2024-02-13T01:59:23.547Z,101544.72
2024-02-13T02:01:50.424Z,101554.41
2024-02-13T02:04:17.110Z,101544.50
2024-02-13T02:06:43.789Z,101543.16
2024-02-13T02:09:10.255Z,101545.63
2024-02-13T02:11:36.847Z,101549.28
2024-02-13T02:14:03.357Z,101548.53
2024-02-13T02:16:29.867Z,101548.94
2024-02-13T02:18:56.952Z,101545.84
2024-02-13T02:21:23.577Z,101548.50
2024-02-13T02:23:50.056Z,101553.03
2024-02-13T02:26:16.471Z,101558.84
2024-02-13T02:28:44.437Z,101560.03
2024-02-13T02:31:15.833Z,101557.19
2024-02-13T02:33:45.046Z,101554.31
2024-02-13T02:36:12.125Z,101555.16
2024-02-13T02:38:39.630Z,101549.81
2024-02-13T02:41:08.313Z,101543.31
2024-02-13T02:43:38.400Z,101551.84
2024-02-13T02:46:05.955Z,101547.78
2024-02-13T02:48:32.532Z,101553.13
2024-02-13T02:50:59.810Z,101536.63
2024-02-13T02:53:26.340Z,101549.16
2024-02-13T02:55:54.361Z,101546.47
2024-02-13T02:58:20.758Z,101540.66
2024-02-13T03:00:47.867Z,101554.22
2024-02-13T03:03:14.304Z,101550.06
2024-02-13T03:05:41.933Z,101559.94
2024-02-13T03:08:09.621Z,101550.06
2024-02-13T03:10:36.304Z,101552.25
2024-02-13T03:13:03.577Z,101552.59
2024-02-13T03:15:30.168Z,101559.97
2024-02-13T03:17:56.758Z,101558.47
2024-02-13T03:20:23.282Z,101549.97
2024-02-13T03:22:50.169Z,101553.00
2024-02-13T03:25:16.743Z,101563.72
2024-02-13T03:27:43.184Z,101563.00
2024-02-13T03:30:11.335Z,101567.16
2024-02-13T03:32:37.959Z,101568.00
2024-02-13T03:35:04.770Z,101561.63
2024-02-13T03:37:31.702Z,101558.31
2024-02-13T03:39:58.215Z,101561.63
2024-02-13T03:42:24.624Z,101557.31
2024-02-13T03:44:51.092Z,101563.47
2024-02-13T03:47:17.563Z,101560.97
2024-02-13T03:49:44.097Z,101553.94
2024-02-13T03:52:10.957Z,101552.97
2024-02-13T03:54:37.744Z,101554.56
2024-02-13T03:57:05.110Z,101547.00
2024-02-13T03:59:31.652Z,101552.91
2024-02-13T04:01:59.987Z,101556.41
2024-02-13T04:04:26.591Z,101553.53
2024-02-13T04:06:53.509Z,101552.53
2024-02-13T04:09:20.123Z,101559.38
2024-02-13T04:11:47.407Z,101567.59
2024-02-13T04:14:14.321Z,101563.44
2024-02-13T04:16:42.338Z,101566.47
2024-02-13T04:19:08.862Z,101570.50
2024-02-13T04:21:36.072Z,101570.00
2024-02-13T04:24:04.018Z,101572.88
2024-02-13T04:26:36.237Z,101568.72
2024-02-13T04:29:04.821Z,101572.09
2024-02-13T04:31:31.344Z,101571.78
2024-02-13T04:33:58.002Z,101577.97
2024-02-13T04:36:25.056Z,101575.44
2024-02-13T04:38:51.730Z,101582.59
2024-02-13T04:41:19.469Z,101577.78
2024-02-13T04:43:46.277Z,101577.47
2024-02-13T04:46:12.783Z,101579.13
2024-02-13T04:48:39.775Z,101584.81
2024-02-13T04:51:06.447Z,101577.13
2024-02-13T04:53:33.915Z,101583.66
2024-02-13T04:56:00.604Z,101586.19
2024-02-13T04:58:31.944Z,101584.72
2024-02-13T05:01:06.792Z,101595.25
2024-02-13T05:03:49.460Z,101590.59
2024-02-13T05:06:35.283Z,101591.78
2024-02-13T05:09:01.736Z,101585.78
2024-02-13T05:11:28.419Z,101586.78
2024-02-13T05:13:57.510Z,101588.47
2024-02-13T05:16:26.854Z,101588.28
2024-02-13T05:18:53.656Z,101589.94
2024-02-13T05:21:21.915Z,101586.28
2024-02-13T05:23:49.069Z,101576.59
2024-02-13T05:26:16.417Z,101589.09
2024-02-13T05:28:43.692Z,101585.59
2024-02-13T05:31:10.259Z,101584.59
2024-02-13T05:33:37.528Z,101594.63
2024-02-13T05:36:05.256Z,101587.13
2024-02-13T05:38:45.598Z,101583.28
2024-02-13T05:41:12.928Z,101589.63
2024-02-13T05:43:41.918Z,101582.13
2024-02-13T05:46:08.716Z,101588.31
2024-02-13T05:48:37.353Z,101582.97
2024-02-13T05:51:05.778Z,101583.44
2024-02-13T05:53:32.905Z,101589.28
2024-02-13T05:56:01.118Z,101587.28
2024-02-13T05:58:29.839Z,101587.47
2024-02-13T06:00:57.852Z,101588.28
2024-02-13T06:03:25.721Z,101582.75
2024-02-13T06:05:56.419Z,101587.56
2024-02-13T06:08:24.012Z,101583.25
2024-02-13T06:10:50.738Z,101586.41
2024-02-13T06:13:17.274Z,101580.41
2024-02-13T06:15:44.015Z,101575.88
2024-02-13T06:18:10.613Z,101581.41
2024-02-13T06:20:37.328Z,101595.59
2024-02-13T06:23:04.155Z,101592.78
2024-02-13T06:25:31.305Z,101592.78
2024-02-13T06:27:57.905Z,101591.59
2024-02-13T06:30:24.325Z,101593.59
2024-02-13T06:32:51.983Z,101589.56
2024-02-13T06:35:18.782Z,101587.88
2024-02-13T06:37:45.392Z,101603.94
2024-02-13T06:40:12.556Z,101604.94
2024-02-13T06:42:39.039Z,101598.41
2024-02-13T06:45:06.774Z,101611.44
2024-02-13T06:47:33.273Z,101615.59
2024-02-13T06:50:01.638Z,101617.63
2024-02-13T06:52:28.587Z,101618.81
2024-02-13T06:54:55.057Z,101621.50
2024-02-13T06:57:21.600Z,101630.66
2024-02-13T06:59:48.116Z,101624.81
2024-02-13T07:02:15.340Z,101626.84
2024-02-13T07:04:41.737Z,101633.69
2024-02-13T07:07:19.447Z,101637.69
2024-02-13T07:09:54.873Z,101639.13
2024-02-13T07:12:21.627Z,101633.94
2024-02-13T07:14:48.573Z,101639.44
2024-02-13T07:17:15.149Z,101636.03
2024-02-13T07:19:42.434Z,101644.41
2024-02-13T07:22:09.466Z,101634.47
2024-02-13T07:24:39.894Z,101631.22
2024-02-13T07:27:07.042Z,101645.91
2024-02-13T07:29:33.601Z,101641.03
2024-02-13T07:32:03.263Z,101646.38
2024-02-13T07:34:29.959Z,101652.13
2024-02-13T07:36:56.684Z,101659.94
2024-02-13T07:39:23.156Z,101659.34
2024-02-13T07:41:50.872Z,101663.66
2024-02-13T07:44:17.390Z,101663.44
2024-02-13T07:46:44.499Z,101670.56
2024-02-13T07:49:11.902Z,101665.84
2024-02-13T07:51:38.772Z,101663.91
2024-02-13T07:54:05.595Z,101674.81
2024-02-13T07:56:32.209Z,101667.22
2024-02-13T07:58:59.566Z,101671.69
2024-02-13T08:01:26.745Z,101672.78
2024-02-13T08:03:53.728Z,101669.13
2024-02-13T08:06:20.510Z,101677.97
2024-02-13T08:08:47.951Z,101674.13
2024-02-13T08:11:14.546Z,101675.13
2024-02-13T08:13:40.987Z,101675.59
2024-02-13T08:16:08.095Z,101677.53
2024-02-13T08:18:35.984Z,101684.41
2024-02-13T08:21:03.190Z,101680.06
2024-02-13T08:23:30.433Z,101690.41
2024-02-13T08:25:57.040Z,101698.63
2024-02-13T08:28:23.771Z,101695.16
2024-02-13T08:30:50.189Z,101691.97
2024-02-13T08:33:20.827Z,101684.97
2024-02-13T08:35:47.823Z,101688.41
2024-02-13T08:38:14.652Z,101692.38
2024-02-13T08:40:42.262Z,101689.44
2024-02-13T08:43:08.754Z,101683.84
2024-02-13T08:45:35.362Z,101685.31
2024-02-13T08:48:02.034Z,101689.22
2024-02-13T08:50:29.064Z,101687.53
2024-02-13T08:52:55.605Z,101699.19
2024-02-13T08:55:22.414Z,101698.22
2024-02-13T08:57:48.873Z,101693.22
2024-02-13T09:00:17.282Z,101691.47
2024-02-13T09:02:44.084Z,101698.59
2024-02-13T09:05:10.861Z,101698.34
2024-02-13T09:07:39.293Z,101708.88
2024-02-13T09:10:06.672Z,101696.44
2024-02-13T09:12:34.564Z,101698.94
2024-02-13T09:15:01.186Z,101701.63
2024-02-13T09:17:27.756Z,101693.47
2024-02-13T09:19:54.260Z,101703.72
2024-02-13T09:22:20.786Z,101696.94
2024-02-13T09:24:52.408Z,101712.72
2024-02-13T09:27:19.983Z,101713.53
2024-02-13T09:29:47.397Z,101722.84
2024-02-13T09:32:13.798Z,101720.09
2024-02-13T09:34:40.405Z,101725.34
2024-02-13T09:37:10.858Z,101722.75
2024-02-13T09:39:37.359Z,101718.13
2024-02-13T09:42:04.592Z,101724.00
2024-02-13T09:44:31.573Z,101722.41
2024-02-13T09:46:58.163Z,101726.84
2024-02-13T09:49:25.119Z,101719.09
2024-02-13T09:51:54.548Z,101730.16
2024-02-13T09:54:24.518Z,101716.38
2024-02-13T09:56:52.307Z,101719.34
2024-02-13T09:59:22.898Z,101720.38
2024-02-13T10:01:50.512Z,101716.22
2024-02-13T10:04:16.977Z,101723.53
2024-02-13T10:06:43.450Z,101712.34
2024-02-13T10:09:12.906Z,101720.03
2024-02-13T10:11:39.999Z,101711.56
2024-02-13T10:14:17.179Z,101716.75
2024-02-13T10:16:43.920Z,101719.22
2024-02-13T10:19:14.471Z,101719.22
2024-02-13T10:21:43.032Z,101731.00
2024-02-13T10:24:15.091Z,101726.50
2024-02-13T10:26:45.352Z,101735.06
2024-02-13T10:29:13.556Z,101736.56
2024-02-13T10:31:42.791Z,101737.28
2024-02-13T10:34:12.735Z,101743.75
2024-02-13T10:36:44.255Z,101725.16
2024-02-13T10:39:13.217Z,101730.97
2024-02-13T10:41:42.082Z,101731.69
2024-02-13T10:44:14.514Z,101742.75
2024-02-13T10:46:43.240Z,101745.13
2024-02-13T10:49:19.538Z,101729.44
2024-02-13T10:51:46.537Z,101735.97
2024-02-13T10:54:16.728Z,101734.66
2024-02-13T10:56:43.811Z,101735.59
2024-02-13T10:59:11.686Z,101743.00
2024-02-13T11:01:41.278Z,101740.47
2024-02-13T11:04:08.679Z,101734.88
2024-02-13T11:06:35.421Z,101736.97
2024-02-13T11:09:02.786Z,101759.25
2024-02-13T11:11:29.426Z,101751.19
2024-02-13T11:13:55.928Z,101751.28
2024-02-13T11:16:23.417Z,101754.50
2024-02-13T11:18:52.142Z,101756.16
2024-02-13T11:21:25.213Z,101743.97
2024-02-13T11:24:03.232Z,101751.53
2024-02-13T11:26:34.239Z,101755.00
2024-02-13T11:29:11.176Z,101754.56
2024-02-13T11:31:40.434Z,101744.28
2024-02-13T11:34:11.787Z,101754.00
2024-02-13T11:36:38.780Z,101743.09
2024-02-13T11:39:07.768Z,101748.09
2024-02-13T11:41:35.443Z,101745.94
2024-02-13T11:44:09.946Z,101744.03
2024-02-13T11:46:41.781Z,101759.84
2024-02-13T11:49:10.699Z,101746.72
2024-02-13T11:51:40.567Z,101754.38
2024-02-13T11:54:07.831Z,101756.63
2024-02-13T11:56:36.743Z,101744.66
2024-02-13T11:59:07.560Z,101747.38
2024-02-13T12:01:37.890Z,101730.16
2024-02-13T12:04:05.710Z,101739.31
2024-02-13T12:06:32.722Z,101741.84
2024-02-13T12:09:01.241Z,101750.63
2024-02-13T12:11:30.075Z,101751.84
2024-02-13T12:13:58.318Z,101749.84
2024-02-13T12:16:25.045Z,101747.94
2024-02-13T12:18:51.816Z,101748.16
2024-02-13T12:21:18.422Z,101749.66
2024-02-13T12:23:51.417Z,101753.06
2024-02-13T12:26:18.718Z,101751.50
2024-02-13T12:28:57.016Z,101738.06
2024-02-13T12:31:24.126Z,101739.88
2024-02-13T12:34:14.830Z,101734.69
2024-02-13T12:36:41.475Z,101742.28
2024-02-13T12:39:22.184Z,101743.41
2024-02-13T12:41:50.262Z,101741.59
2024-02-13T12:44:18.214Z,101743.75
2024-02-13T12:46:46.769Z,101745.13
2024-02-13T12:49:14.150Z,101742.47
2024-02-13T12:51:41.012Z,101748.53
2024-02-13T12:54:08.426Z,101742.13
2024-02-13T12:56:35.111Z,101751.75
2024-02-13T12:59:04.543Z,101744.88
2024-02-13T13:01:32.622Z,101753.41
2024-02-13T13:03:59.782Z,101750.00
2024-02-13T13:06:28.544Z,101744.94
2024-02-13T13:08:58.008Z,101740.69
2024-02-13T13:11:24.982Z,101749.03
2024-02-13T13:13:51.701Z,101751.31
2024-02-13T13:16:18.126Z,101747.56
2024-02-13T13:18:46.150Z,101744.34
2024-02-13T13:21:14.991Z,101744.56
2024-02-13T13:23:42.759Z,101744.19
2024-02-13T13:26:10.224Z,101739.38
2024-02-13T13:28:39.047Z,101738.56
2024-02-13T13:31:05.929Z,101733.56
2024-02-13T13:33:35.151Z,101732.16
2024-02-13T13:36:02.177Z,101734.50
2024-02-13T13:38:30.223Z,101730.31
2024-02-13T13:41:02.279Z,101719.56
2024-02-13T13:43:31.778Z,101718.28
2024-02-13T13:45:59.111Z,101713.78
2024-02-13T13:48:28.632Z,101715.91
2024-02-13T13:50:55.516Z,101714.38
2024-02-13T13:53:24.257Z,101718.91
2024-02-13T13:55:51.008Z,101713.78
2024-02-13T13:58:17.582Z,101716.78
2024-02-13T14:00:44.636Z,101713.44
2024-02-13T14:03:12.691Z,101709.56
2024-02-13T14:05:40.692Z,101705.53
2024-02-13T14:08:09.010Z,101716.44
2024-02-13T14:10:35.524Z,101714.28
2024-02-13T14:13:03.441Z,101707.78
2024-02-13T14:15:30.384Z,101711.25
2024-02-13T14:17:59.424Z,101711.25
2024-02-13T14:20:26.787Z,101711.94
2024-02-13T14:22:57.848Z,101713.81
2024-02-13T14:25:27.251Z,101707.72
2024-02-13T14:27:54.799Z,101705.66
2024-02-13T14:30:22.220Z,101716.84
2024-02-13T14:32:49.439Z,101717.38
2024-02-13T14:35:19.128Z,101716.72
2024-02-13T14:37:48.859Z,101715.44
2024-02-13T14:40:16.472Z,101715.97
2024-02-13T14:42:46.174Z,101726.72
2024-02-13T14:45:12.922Z,101717.53
2024-02-13T14:47:40.222Z,101712.50
2024-02-13T14:50:08.583Z,101718.38
2024-02-13T14:52:37.988Z,101707.53
2024-02-13T14:55:05.125Z,101702.72
2024-02-13T14:57:35.101Z,101704.50
2024-02-13T15:00:07.122Z,101702.31
2024-02-13T15:02:36.747Z,101709.38
2024-02-13T15:05:04.369Z,101709.22
2024-02-13T15:07:31.375Z,101710.72
2024-02-13T15:09:59.022Z,101711.16
2024-02-13T15:12:25.473Z,101710.38
2024-02-13T15:14:52.065Z,101709.63
2024-02-13T15:17:20.775Z,101711.72
2024-02-13T15:19:48.050Z,101706.75
2024-02-13T15:22:18.923Z,101695.84
2024-02-13T15:24:48.575Z,101701.06
2024-02-13T15:27:15.099Z,101698.78
2024-02-13T15:29:43.701Z,101700.44
2024-02-13T15:32:10.434Z,101696.53
2024-02-13T15:34:42.520Z,101698.44
2024-02-13T15:37:09.035Z,101701.78
2024-02-13T15:39:54.155Z,101685.53
2024-02-13T15:42:35.072Z,101693.25
2024-02-13T15:45:19.929Z,101692.81
2024-02-13T15:47:46.518Z,101690.94
2024-02-13T15:50:13.404Z,101693.25
2024-02-13T15:52:40.392Z,101688.91
2024-02-13T15:55:12.061Z,101690.00
2024-02-13T15:57:44.312Z,101685.03
2024-02-13T16:00:16.057Z,101685.69
2024-02-13T16:02:44.687Z,101683.22
2024-02-13T16:05:18.112Z,101687.81
2024-02-13T16:07:45.250Z,101680.97
2024-02-13T16:10:16.187Z,101687.44
2024-02-13T16:12:44.339Z,101683.91
2024-02-13T16:15:13.300Z,101690.38
2024-02-13T16:17:40.842Z,101685.16
2024-02-13T16:20:09.305Z,101684.56
2024-02-13T16:22:37.341Z,101684.63
2024-02-13T16:25:07.261Z,101687.53
2024-02-13T16:27:34.912Z,101685.69
2024-02-13T16:30:01.620Z,101691.75
2024-02-13T16:32:35.905Z,101690.13
2024-02-13T16:35:09.334Z,101693.28
2024-02-13T16:37:35.979Z,101689.72
2024-02-13T16:40:06.613Z,101694.31
2024-02-13T16:42:34.062Z,101694.13
2024-02-13T16:45:00.691Z,101699.34
2024-02-13T16:47:27.389Z,101699.78
2024-02-13T16:49:58.908Z,101698.53
2024-02-13T16:52:27.812Z,101695.22
2024-02-13T16:54:56.984Z,101696.69
2024-02-13T16:57:23.397Z,101711.88
2024-02-13T16:59:51.280Z,101712.28
2024-02-13T17:02:17.707Z,101707.72
2024-02-13T17:04:45.858Z,101699.44
2024-02-13T17:07:12.463Z,101699.47
2024-02-13T17:09:39.159Z,101714.88
2024-02-13T17:12:05.990Z,101722.38
2024-02-13T17:14:32.722Z,101720.50
2024-02-13T17:16:59.341Z,101718.44
2024-02-13T17:19:25.996Z,101716.59
2024-02-13T17:21:52.757Z,101717.59
2024-02-13T17:24:19.192Z,101712.00
2024-02-13T17:26:45.624Z,101716.81
2024-02-13T17:29:12.736Z,101711.81
2024-02-13T17:31:39.255Z,101717.44
2024-02-13T17:34:05.995Z,101716.38
2024-02-13T17:36:32.763Z,101717.44
2024-02-13T17:38:59.284Z,101716.19
2024-02-13T17:41:28.932Z,101716.81
2024-02-13T17:44:00.274Z,101709.56
2024-02-13T17:46:27.511Z,101713.69
2024-02-13T17:48:54.384Z,101713.50
2024-02-13T17:51:20.962Z,101716.41
2024-02-13T17:53:47.504Z,101717.44
2024-02-13T17:56:13.978Z,101709.97
2024-02-13T17:58:40.451Z,101706.19
2024-02-13T18:01:07.081Z,101705.75
2024-02-13T18:03:33.755Z,101709.50
2024-02-13T18:06:02.722Z,101712.00
2024-02-13T18:08:29.534Z,101702.44
2024-02-13T18:10:56.145Z,101696.03
2024-02-13T18:13:23.412Z,101692.50
2024-02-13T18:15:50.883Z,101698.69
2024-02-13T18:18:18.589Z,101694.78
2024-02-13T18:20:45.557Z,101696.66
2024-02-13T18:23:14.012Z,101677.97
2024-02-13T18:25:40.565Z,101687.09
2024-02-13T18:28:07.312Z,101683.34
2024-02-13T18:30:33.874Z,101676.31
2024-02-13T18:33:00.489Z,101677.75
2024-02-13T18:35:28.201Z,101674.44
2024-02-13T18:37:54.794Z,101671.13
2024-02-13T18:40:21.861Z,101669.00
2024-02-13T18:42:48.471Z,101663.00
2024-02-13T18:45:15.262Z,101658.03
2024-02-13T18:47:45.645Z,101662.19
2024-02-13T18:50:12.645Z,101665.47
2024-02-13T18:52:39.256Z,101654.06
2024-02-13T18:55:10.531Z,101649.53
2024-02-13T18:57:41.620Z,101652.63
2024-02-13T19:00:11.032Z,101646.41
2024-02-13T19:02:37.779Z,101636.44
2024-02-13T19:05:06.515Z,101633.53
2024-02-13T19:07:33.044Z,101630.66
2024-02-13T19:09:59.551Z,101635.63
2024-02-13T19:12:26.061Z,101631.06
2024-02-13T19:14:52.584Z,101627.53
2024-02-13T19:17:20.817Z,101629.38
2024-02-13T19:19:48.962Z,101624.84
2024-02-13T19:22:15.440Z,101620.47
2024-02-13T19:24:42.404Z,101623.38
2024-02-13T19:27:11.130Z,101615.94
2024-02-13T19:29:40.929Z,101614.25
2024-02-13T19:32:07.503Z,101613.63
2024-02-13T19:34:33.974Z,101616.97
2024-02-13T19:37:01.266Z,101618.59
2024-02-13T19:39:27.705Z,101609.06
2024-02-13T19:41:54.443Z,101602.44
2024-02-13T19:44:22.556Z,101598.69
2024-02-13T19:46:48.978Z,101596.41
2024-02-13T19:49:16.801Z,101598.72
2024-02-13T19:51:43.946Z,101593.31
2024-02-13T19:54:11.468Z,101588.72
2024-02-13T19:56:39.164Z,101582.53
2024-02-13T19:59:06.360Z,101571.53
2024-02-13T20:01:34.059Z,101575.47
2024-02-13T20:04:03.750Z,101577.16
2024-02-13T20:06:30.496Z,101568.66
2024-02-13T20:08:59.399Z,101567.81
2024-02-13T20:11:26.755Z,101568.00
2024-02-13T20:13:55.795Z,101557.66
2024-02-13T20:16:26.283Z,101555.81
2024-02-13T20:18:58.586Z,101553.09
2024-02-13T20:21:32.754Z,101559.09
2024-02-13T20:23:59.368Z,101555.16
2024-02-13T20:26:26.077Z,101548.34
2024-02-13T20:28:53.113Z,101547.72
2024-02-13T20:31:20.393Z,101543.34
2024-02-13T20:33:47.033Z,101542.31
2024-02-13T20:36:13.560Z,101544.81
2024-02-13T20:38:40.288Z,101548.75
2024-02-13T20:41:08.974Z,101539.00
2024-02-13T20:43:36.332Z,101537.97
2024-02-13T20:46:03.556Z,101533.59
2024-02-13T20:48:31.246Z,101530.28
2024-02-13T20:50:57.784Z,101531.50
2024-02-13T20:53:24.491Z,101523.84
2024-02-13T20:55:54.168Z,101516.59
2024-02-13T20:58:20.727Z,101517.19
2024-02-13T21:00:50.267Z,101522.81
2024-02-13T21:03:20.801Z,101509.75
2024-02-13T21:05:47.552Z,101512.22
2024-02-13T21:08:14.871Z,101511.19
2024-02-13T21:10:41.269Z,101511.63
2024-02-13T21:13:07.685Z,101504.97
2024-02-13T21:15:35.385Z,101504.97
2024-02-13T21:18:02.471Z,101506.59
2024-02-13T21:20:31.210Z,101496.47
2024-02-13T21:23:16.178Z,101498.31
2024-02-13T21:25:45.474Z,101490.22
2024-02-13T21:28:11.866Z,101481.72
2024-02-13T21:30:38.346Z,101476.31
2024-02-13T21:33:05.367Z,101477.16
2024-02-13T21:35:32.131Z,101480.47
2024-02-13T21:37:58.663Z,101481.72
2024-02-13T21:40:26.521Z,101484.00
2024-02-13T21:42:53.189Z,101477.16
2024-02-13T21:45:20.883Z,101485.03
2024-02-13T21:47:47.563Z,101501.66
2024-02-13T21:50:14.284Z,101490.66
2024-02-13T21:52:41.787Z,101486.75
2024-02-13T21:55:08.628Z,101474.28
2024-02-13T21:57:35.064Z,101489.25
2024-02-13T22:00:07.863Z,101480.13
2024-02-13T22:02:34.786Z,101473.25
2024-02-13T22:05:01.744Z,101474.72
2024-02-13T22:07:28.256Z,101475.16
2024-02-13T22:09:57.249Z,101480.75
2024-02-13T22:12:23.808Z,101484.50
2024-02-13T22:14:50.502Z,101467.72
2024-02-13T22:17:17.001Z,101482.63
2024-02-13T22:19:43.497Z,101466.88
2024-02-13T22:22:12.444Z,101455.47
2024-02-13T22:24:39.569Z,101454.88
2024-02-13T22:27:06.738Z,101453.19
2024-02-13T22:29:33.989Z,101457.75
2024-02-13T22:32:00.536Z,101455.91
2024-02-13T22:34:27.182Z,101456.09
2024-02-13T22:36:53.815Z,101442.63
2024-02-13T22:39:20.255Z,101440.16
2024-02-13T22:41:46.754Z,101435.78
2024-02-13T22:44:13.228Z,101426.69
2024-02-13T22:46:39.775Z,101440.75
2024-02-13T22:49:07.349Z,101432.91
2024-02-13T22:51:33.946Z,101432.50
2024-02-13T22:54:00.537Z,101415.50
2024-02-13T22:56:27.145Z,101423.34
2024-02-13T22:58:56.326Z,101431.44
2024-02-13T23:01:24.927Z,101425.84
2024-02-13T23:03:51.675Z,101425.84
2024-02-13T23:06:18.255Z,101416.72
2024-02-13T23:08:45.185Z,101407.59
2024-02-13T23:11:11.916Z,101398.50
2024-02-13T23:13:42.900Z,101396.63
2024-02-13T23:16:12.615Z,101402.63
2024-02-13T23:18:41.473Z,101402.63
2024-02-13T23:21:08.346Z,101399.72
2024-02-13T23:23:35.216Z,101396.00
2024-02-13T23:26:02.009Z,101387.69
2024-02-13T23:28:35.632Z,101383.13
2024-02-13T23:31:10.084Z,101386.66
2024-02-13T23:33:36.625Z,101381.50
2024-02-13T23:36:03.504Z,101372.38
2024-02-13T23:38:30.023Z,101369.47
2024-02-13T23:40:56.442Z,101378.59
2024-02-13T23:43:23.062Z,101370.31
2024-02-13T23:45:49.816Z,101378.16
2024-02-13T23:48:22.897Z,101381.28
2024-02-13T23:50:52.133Z,101375.88
2024-02-13T23:53:18.660Z,101363.88
2024-02-13T23:55:45.081Z,101369.66
2024-02-13T23:58:11.974Z,101365.91
